EGSS

London Stansted Airport

Code ICAO EGSS
Code IATA STN
Nom London Stansted Airport
Emplacement London, England, GB
Élévation 348 pieds / 106.1 mètres
Latitude 51.88499832
Longitude 0.23500000
METAR EGSS 232350Z 24001KT 8000 BCFG NSC 13/13 Q1018
Informations extras Afficher cartes et CFS
Afficher NOTAMS
Piste Longueur Largeur Surface Élévation
04 10003 ft 151 ft ASP 324 ft
22 10003 ft 151 ft ASP 348 ft